createdAt,value
2018-09-12T00:00:25.353Z,4.62
2018-09-12T00:02:52.338Z,4.70
2018-09-12T00:05:19.317Z,4.37
2018-09-12T00:07:46.297Z,4.53
2018-09-12T00:10:13.297Z,4.50
2018-09-12T00:12:40.302Z,4.50
2018-09-12T00:15:07.280Z,4.47
2018-09-12T00:17:34.265Z,4.53
2018-09-12T00:20:01.758Z,4.42
2018-09-12T00:22:28.730Z,4.37
2018-09-12T00:24:55.727Z,4.53
2018-09-12T00:27:22.699Z,4.20
2018-09-12T00:29:49.687Z,4.50
2018-09-12T00:32:16.683Z,4.83
2018-09-12T00:34:43.653Z,4.47
2018-09-12T00:37:10.638Z,4.78
2018-09-12T00:39:37.610Z,4.33
2018-09-12T00:42:04.627Z,4.60
2018-09-12T00:44:31.587Z,4.62
2018-09-12T00:46:58.623Z,4.30
2018-09-12T00:49:25.628Z,4.37
2018-09-12T00:51:52.583Z,4.30
2018-09-12T00:54:19.621Z,4.12
2018-09-12T00:56:46.590Z,4.05
2018-09-12T00:59:13.662Z,4.23
2018-09-12T01:01:40.680Z,4.30
2018-09-12T01:04:07.671Z,4.30
2018-09-12T01:06:34.666Z,4.15
2018-09-12T01:09:01.813Z,4.20
2018-09-12T01:11:28.781Z,4.40
2018-09-12T01:13:56.101Z,4.30
2018-09-12T01:16:23.143Z,4.40
2018-09-12T01:18:50.220Z,4.53
2018-09-12T01:21:17.376Z,4.30
2018-09-12T01:23:44.379Z,4.22
2018-09-12T01:26:11.399Z,4.35
2018-09-12T01:28:38.380Z,4.53
2018-09-12T01:31:05.414Z,4.17
2018-09-12T01:33:32.419Z,4.30
2018-09-12T01:35:59.398Z,4.50
2018-09-12T01:38:26.394Z,4.42
2018-09-12T01:40:53.384Z,4.53
2018-09-12T01:43:20.338Z,4.87
2018-09-12T01:45:47.294Z,4.37
2018-09-12T01:48:14.336Z,4.47
2018-09-12T01:50:41.306Z,4.60
2018-09-12T01:53:08.299Z,4.47
2018-09-12T01:55:35.254Z,4.40
2018-09-12T02:00:42.671Z,4.55
2018-09-12T02:03:10.073Z,4.30
2018-09-12T02:05:37.563Z,4.70
2018-09-12T02:08:08.255Z,4.47
2018-09-12T02:10:35.247Z,4.50
2018-09-12T02:13:02.207Z,4.47
2018-09-12T02:15:29.661Z,4.80
2018-09-12T02:17:56.626Z,4.90
2018-09-12T02:20:23.597Z,4.55
2018-09-12T02:22:51.004Z,5.00
2018-09-12T02:25:17.971Z,5.00
2018-09-12T02:27:44.941Z,5.17
2018-09-12T02:30:11.926Z,4.90
2018-09-12T02:32:38.903Z,5.10
2018-09-12T02:35:05.927Z,5.20
2018-09-12T02:37:32.920Z,5.05
2018-09-12T02:39:59.887Z,5.17
2018-09-12T02:42:26.853Z,5.05
2018-09-12T02:44:53.824Z,5.10
2018-09-12T02:47:26.447Z,4.92
2018-09-12T02:49:53.424Z,5.20
2018-09-12T02:52:20.408Z,5.28
2018-09-12T02:54:47.376Z,5.17
2018-09-12T02:57:14.711Z,4.97
2018-09-12T02:59:41.808Z,5.53
2018-09-12T03:02:09.328Z,5.25
2018-09-12T03:04:36.471Z,5.25
2018-09-12T03:07:03.460Z,4.97
2018-09-12T03:09:30.467Z,5.10
2018-09-12T03:11:57.435Z,4.97
2018-09-12T03:14:24.429Z,4.92
2018-09-12T03:16:51.382Z,4.92
2018-09-12T03:19:18.343Z,5.10
2018-09-12T03:21:45.324Z,5.28
2018-09-12T03:24:12.531Z,5.45
2018-09-12T03:26:39.508Z,5.40
2018-09-12T03:29:06.498Z,5.25
2018-09-12T03:31:33.486Z,5.25
2018-09-12T03:34:00.463Z,4.90
2018-09-12T03:36:27.473Z,4.90
2018-09-12T03:38:54.420Z,5.03
2018-09-12T03:41:21.595Z,5.33
2018-09-12T03:43:48.583Z,5.40
2018-09-12T03:46:15.538Z,5.03
2018-09-12T03:48:42.506Z,5.40
2018-09-12T03:51:09.490Z,5.47
2018-09-12T03:53:36.484Z,5.15
2018-09-12T03:56:03.452Z,5.20
2018-09-12T03:58:30.460Z,5.20
2018-09-12T04:00:57.439Z,5.30
2018-09-12T04:03:24.411Z,5.22
2018-09-12T04:05:51.398Z,4.72
2018-09-12T04:08:18.352Z,4.90
2018-09-12T04:10:45.319Z,5.30
2018-09-12T04:13:12.339Z,5.10
2018-09-12T04:15:39.321Z,4.92
2018-09-12T04:18:06.304Z,5.17
2018-09-12T04:20:33.340Z,5.10
2018-09-12T04:23:00.303Z,5.47
2018-09-12T04:25:27.526Z,5.22
2018-09-12T04:27:54.514Z,5.10
2018-09-12T04:30:21.486Z,5.00
2018-09-12T04:32:48.440Z,5.00
2018-09-12T04:35:15.435Z,5.30
2018-09-12T04:37:42.406Z,5.30
2018-09-12T04:40:09.384Z,5.25
2018-09-12T04:42:36.405Z,5.42
2018-09-12T04:45:03.310Z,5.20
2018-09-12T04:47:30.262Z,5.47
2018-09-12T04:49:57.231Z,5.67
2018-09-12T04:52:24.186Z,5.30
2018-09-12T04:54:51.170Z,4.97
2018-09-12T04:57:18.160Z,5.58
2018-09-12T04:59:45.220Z,5.23
2018-09-12T05:02:12.110Z,5.28
2018-09-12T05:04:39.084Z,5.20
2018-09-12T05:07:06.098Z,5.50
2018-09-12T05:09:33.064Z,5.50
2018-09-12T05:12:00.030Z,5.00
2018-09-12T05:14:26.987Z,5.28
2018-09-12T05:16:53.970Z,5.45
2018-09-12T05:19:20.958Z,5.35
2018-09-12T05:21:47.924Z,5.67
2018-09-12T05:24:14.884Z,5.83
2018-09-12T05:26:42.462Z,5.70
2018-09-12T05:29:09.448Z,6.08
2018-09-12T05:31:36.396Z,5.55
2018-09-12T05:34:03.393Z,5.80
2018-09-12T05:36:30.453Z,5.70
2018-09-12T05:38:57.868Z,5.72
2018-09-12T05:41:24.854Z,5.80
2018-09-12T05:43:51.809Z,5.55
2018-09-12T05:46:18.816Z,5.40
2018-09-12T05:48:45.799Z,5.53
2018-09-12T05:51:12.762Z,5.62
2018-09-12T05:53:39.731Z,5.65
2018-09-12T05:56:06.746Z,5.87
2018-09-12T05:58:33.718Z,5.80
2018-09-12T06:01:00.689Z,5.70
2018-09-12T06:03:27.676Z,6.33
2018-09-12T06:05:54.649Z,5.75
2018-09-12T06:08:21.628Z,5.80
2018-09-12T06:10:48.641Z,6.28
2018-09-12T06:13:15.585Z,5.80
2018-09-12T06:15:42.557Z,5.80
2018-09-12T06:18:09.550Z,5.47
2018-09-12T06:20:36.626Z,5.97
2018-09-12T06:23:03.626Z,5.70
2018-09-12T06:25:30.613Z,5.65
2018-09-12T06:27:58.107Z,5.80
2018-09-12T06:30:25.078Z,5.97
2018-09-12T06:32:52.070Z,5.45
2018-09-12T06:35:19.038Z,5.60
2018-09-12T06:37:46.051Z,5.55
2018-09-12T06:40:13.007Z,5.60
2018-09-12T06:42:39.977Z,5.58
2018-09-12T06:45:06.938Z,5.80
2018-09-12T06:47:33.951Z,5.37
2018-09-12T06:50:00.901Z,5.53
2018-09-12T06:52:27.864Z,5.60
2018-09-12T06:54:54.871Z,5.33
2018-09-12T06:57:21.843Z,5.45
2018-09-12T06:59:48.871Z,5.20
2018-09-12T07:02:15.849Z,5.00
2018-09-12T07:04:42.832Z,4.90
2018-09-12T07:07:09.799Z,5.33
2018-09-12T07:09:36.784Z,4.95
2018-09-12T07:12:03.738Z,4.83
2018-09-12T07:14:30.781Z,4.90
2018-09-12T07:16:57.774Z,4.90
2018-09-12T07:19:24.788Z,4.78
2018-09-12T07:21:51.914Z,4.72
2018-09-12T07:24:18.909Z,4.65
2018-09-12T07:26:45.882Z,4.53
2018-09-12T07:29:13.037Z,4.50
2018-09-12T07:31:40.152Z,4.40
2018-09-12T07:34:07.138Z,4.58
2018-09-12T07:36:34.132Z,4.20
2018-09-12T07:39:01.125Z,4.40
2018-09-12T07:41:28.109Z,4.10
2018-09-12T07:43:55.067Z,4.33
2018-09-12T07:46:22.048Z,4.20
2018-09-12T07:48:49.027Z,4.40
2018-09-12T07:51:15.980Z,4.17
2018-09-12T07:53:42.959Z,4.00
2018-09-12T07:56:10.005Z,4.20
2018-09-12T07:58:36.903Z,4.08
2018-09-12T08:01:03.994Z,4.12
2018-09-12T08:03:30.979Z,4.15
2018-09-12T08:05:57.950Z,4.30
2018-09-12T08:08:24.943Z,4.00
2018-09-12T08:10:51.930Z,4.12
2018-09-12T08:13:18.884Z,4.08
2018-09-12T08:15:45.866Z,3.80
2018-09-12T08:18:12.875Z,4.03
2018-09-12T08:20:39.861Z,4.03
2018-09-12T08:23:06.849Z,4.00
2018-09-12T08:25:33.816Z,3.90
2018-09-12T08:28:00.813Z,3.90
2018-09-12T08:30:28.251Z,4.00
2018-09-12T08:32:55.218Z,3.80
2018-09-12T08:35:22.184Z,3.60
2018-09-12T08:37:49.212Z,3.98
2018-09-12T08:40:16.193Z,3.98
2018-09-12T08:42:44.035Z,3.60
2018-09-12T08:45:11.031Z,3.63
2018-09-12T08:47:38.012Z,3.60
2018-09-12T08:50:06.107Z,3.62
2018-09-12T08:52:33.087Z,3.80
2018-09-12T08:55:00.065Z,3.87
2018-09-12T08:57:27.068Z,3.70
2018-09-12T08:59:54.220Z,3.70
2018-09-12T09:02:21.180Z,3.70
2018-09-12T09:04:48.133Z,3.80
2018-09-12T09:07:15.099Z,3.80
2018-09-12T09:09:42.088Z,3.70
2018-09-12T09:12:09.055Z,3.60
2018-09-12T09:14:36.037Z,3.52
2018-09-12T09:17:03.071Z,3.80
2018-09-12T09:19:30.652Z,3.80
2018-09-12T09:21:57.636Z,3.90
2018-09-12T09:24:24.606Z,3.70
2018-09-12T09:26:51.562Z,3.80
2018-09-12T09:29:18.561Z,3.70
2018-09-12T09:31:45.727Z,3.70
2018-09-12T09:34:12.710Z,3.60
2018-09-12T09:36:39.692Z,3.90
2018-09-12T09:39:08.619Z,3.77
2018-09-12T09:41:35.638Z,3.62
2018-09-12T09:44:02.630Z,3.70
2018-09-12T09:46:29.555Z,3.50
2018-09-12T09:48:56.558Z,3.60
2018-09-12T09:51:23.497Z,3.75
2018-09-12T09:53:50.465Z,3.50
2018-09-12T09:56:17.426Z,3.60
2018-09-12T09:58:44.414Z,3.70
2018-09-12T10:01:17.237Z,3.47
2018-09-12T10:03:50.154Z,3.60
2018-09-12T10:06:18.132Z,3.80
2018-09-12T10:08:51.030Z,3.40
2018-09-12T10:11:18.810Z,3.50
2018-09-12T10:13:45.779Z,3.20
2018-09-12T10:16:12.771Z,3.30
2018-09-12T10:18:39.730Z,3.30
2018-09-12T10:21:06.686Z,3.05
2018-09-12T10:23:33.666Z,3.10
2018-09-12T10:26:00.626Z,3.20
2018-09-12T10:28:27.586Z,2.95
2018-09-12T10:30:54.543Z,3.20
2018-09-12T10:33:22.040Z,2.90
2018-09-12T10:35:49.012Z,3.10
2018-09-12T10:38:16.003Z,3.25
2018-09-12T10:40:42.986Z,3.10
2018-09-12T10:43:10.018Z,3.30
2018-09-12T10:45:36.995Z,3.07
2018-09-12T10:48:03.986Z,3.20
2018-09-12T10:50:30.967Z,3.30
2018-09-12T10:52:57.918Z,3.20
2018-09-12T10:55:24.889Z,3.25
2018-09-12T10:57:51.844Z,3.30
2018-09-12T11:00:18.814Z,3.20
2018-09-12T11:02:45.782Z,2.90
2018-09-12T11:05:12.739Z,3.12
2018-09-12T11:07:39.712Z,2.90
2018-09-12T11:10:06.666Z,3.07
2018-09-12T11:12:33.654Z,3.20
2018-09-12T11:15:00.658Z,3.12
2018-09-12T11:17:27.606Z,3.20
2018-09-12T11:19:54.577Z,3.10
2018-09-12T11:22:21.634Z,3.27
2018-09-12T11:24:48.591Z,3.27
2018-09-12T11:27:15.554Z,3.20
2018-09-12T11:29:42.646Z,3.27
2018-09-12T11:32:09.610Z,3.33
2018-09-12T11:34:36.986Z,3.30
2018-09-12T11:37:03.962Z,3.80
2018-09-12T11:39:30.931Z,3.30
2018-09-12T11:41:57.887Z,3.45
2018-09-12T11:44:24.850Z,3.37
2018-09-12T11:46:51.818Z,3.20
2018-09-12T11:49:18.783Z,3.30
2018-09-12T11:51:48.281Z,3.50
2018-09-12T11:54:15.261Z,3.47
2018-09-12T11:56:42.382Z,3.50
2018-09-12T11:59:09.417Z,3.30
2018-09-12T12:01:36.401Z,3.33
2018-09-12T12:04:03.618Z,3.40
2018-09-12T12:06:30.625Z,3.15
2018-09-12T12:08:57.652Z,3.30
2018-09-12T12:11:24.648Z,3.20
2018-09-12T12:13:51.649Z,3.25
2018-09-12T12:16:18.626Z,3.30
2018-09-12T12:18:45.599Z,3.20
2018-09-12T12:21:12.702Z,3.30
2018-09-12T12:23:39.667Z,3.20
2018-09-12T12:26:06.717Z,3.20
2018-09-12T12:28:33.674Z,3.17
2018-09-12T12:31:00.626Z,3.33
2018-09-12T12:33:27.592Z,3.25
2018-09-12T12:35:54.983Z,3.10
2018-09-12T12:38:21.941Z,3.33
2018-09-12T12:40:48.894Z,3.10
2018-09-12T12:43:15.910Z,3.33
2018-09-12T12:45:43.003Z,3.35
2018-09-12T12:48:10.174Z,3.52
2018-09-12T12:50:37.142Z,3.17
2018-09-12T12:53:04.263Z,3.15
2018-09-12T12:55:31.231Z,2.70
2018-09-12T12:57:58.215Z,2.87
2018-09-12T13:00:25.166Z,2.77
2018-09-12T13:02:52.147Z,3.03
2018-09-12T13:05:19.125Z,2.80
2018-09-12T13:07:46.091Z,2.70
2018-09-12T13:10:13.039Z,2.80
2018-09-12T13:12:40.013Z,2.80
2018-09-12T13:15:06.994Z,3.10
2018-09-12T13:17:33.963Z,2.70
2018-09-12T13:20:00.920Z,2.60
2018-09-12T13:22:27.947Z,2.60
2018-09-12T13:24:54.913Z,2.62
2018-09-12T13:27:21.959Z,2.75
2018-09-12T13:29:48.864Z,2.70
2018-09-12T13:32:15.834Z,2.90
2018-09-12T13:34:42.821Z,2.80
2018-09-12T13:37:10.265Z,2.67
2018-09-12T13:39:37.223Z,3.10
2018-09-12T13:42:04.172Z,6.77
2018-09-12T13:44:31.167Z,15.18
2018-09-12T13:46:58.100Z,13.65
2018-09-12T13:49:25.156Z,8.90
2018-09-12T13:51:52.030Z,5.57
2018-09-12T13:54:18.994Z,4.78
2018-09-12T13:56:46.083Z,3.05
2018-09-12T13:59:12.967Z,3.67
2018-09-12T14:01:39.918Z,3.00
2018-09-12T14:04:06.886Z,3.30
2018-09-12T14:06:33.886Z,3.10
2018-09-12T14:09:00.901Z,3.20
2018-09-12T14:11:27.855Z,2.98
2018-09-12T14:13:54.810Z,3.10
2018-09-12T14:16:23.006Z,2.87
2018-09-12T14:18:49.973Z,2.90
2018-09-12T14:23:07.892Z,27.87
2018-09-12T14:25:34.850Z,41.20
2018-09-12T14:28:01.827Z,14.20
2018-09-12T14:30:28.825Z,7.37
2018-09-12T14:32:55.814Z,9.33
2018-09-12T14:35:22.788Z,5.85
2018-09-12T14:37:50.230Z,6.60
2018-09-12T14:40:17.231Z,3.62
2018-09-12T14:42:44.178Z,3.93
2018-09-12T14:45:11.283Z,3.62
2018-09-12T14:47:38.147Z,3.20
2018-09-12T14:50:05.090Z,3.30
2018-09-12T14:52:33.482Z,2.98
2018-09-12T14:55:01.814Z,2.92
2018-09-12T14:57:29.712Z,4.35
2018-09-12T14:59:56.957Z,3.20
2018-09-12T15:02:24.444Z,2.80
2018-09-12T15:04:51.569Z,2.77
2018-09-12T15:07:18.499Z,2.90
2018-09-12T15:09:45.559Z,3.10
2018-09-12T15:12:12.566Z,3.17
2018-09-12T15:14:39.560Z,2.83
2018-09-12T15:17:06.909Z,2.80
2018-09-12T15:19:33.962Z,2.80
2018-09-12T15:22:01.080Z,2.80
2018-09-12T15:24:30.564Z,2.53
2018-09-12T15:26:57.684Z,2.77
2018-09-12T15:29:25.163Z,2.67
2018-09-12T15:31:52.181Z,2.95
2018-09-12T15:34:19.144Z,2.95
2018-09-12T15:36:46.222Z,2.83
2018-09-12T15:39:14.565Z,2.85
2018-09-12T15:41:41.604Z,3.00
2018-09-12T15:44:08.556Z,3.20
2018-09-12T15:46:36.433Z,2.83
2018-09-12T15:49:03.567Z,3.10
2018-09-12T15:51:30.561Z,2.90
2018-09-12T15:53:57.566Z,3.05
2018-09-12T15:56:24.564Z,3.17
2018-09-12T15:58:51.567Z,2.95
2018-09-12T16:01:18.663Z,2.72
2018-09-12T16:03:45.679Z,6.33
2018-09-12T16:06:12.632Z,6.80
2018-09-12T16:08:39.811Z,15.23
2018-09-12T16:11:08.255Z,11.18
2018-09-12T16:13:35.297Z,8.08
2018-09-12T16:16:03.576Z,6.47
2018-09-12T16:18:35.701Z,4.17
2018-09-12T16:21:03.167Z,4.28
2018-09-12T16:23:43.461Z,3.80
2018-09-12T16:26:15.427Z,3.60
2018-09-12T16:28:45.056Z,3.92
2018-09-12T16:31:12.947Z,3.00
2018-09-12T16:33:39.889Z,3.10
2018-09-12T16:36:06.874Z,3.37
2018-09-12T16:38:33.838Z,3.52
2018-09-12T16:41:01.373Z,3.20
2018-09-12T16:43:28.379Z,3.70
2018-09-12T16:45:55.350Z,4.30
2018-09-12T16:48:22.338Z,3.72
2018-09-12T16:50:49.345Z,3.87
2018-09-12T16:53:16.639Z,3.40
2018-09-12T16:55:43.624Z,3.50
2018-09-12T16:58:10.602Z,3.58
2018-09-12T17:00:37.652Z,3.20
2018-09-12T17:03:04.590Z,3.30
2018-09-12T17:05:31.627Z,3.47
2018-09-12T17:07:58.587Z,3.42
2018-09-12T17:10:25.543Z,3.52
2018-09-12T17:12:52.522Z,3.40
2018-09-12T17:15:19.471Z,3.25
2018-09-12T17:17:46.426Z,3.30
2018-09-12T17:20:13.448Z,3.30
2018-09-12T17:22:40.378Z,3.47
2018-09-12T17:25:07.379Z,3.30
2018-09-12T17:27:34.366Z,3.90
2018-09-12T17:30:01.338Z,3.80
2018-09-12T17:32:28.356Z,3.95
2018-09-12T17:34:55.375Z,3.87
2018-09-12T17:37:22.358Z,3.98
2018-09-12T17:39:49.325Z,3.77
2018-09-12T17:42:16.847Z,4.05
2018-09-12T17:44:43.851Z,3.70
2018-09-12T17:47:10.802Z,3.42
2018-09-12T17:49:37.786Z,3.50
2018-09-12T17:52:04.912Z,3.50
2018-09-12T17:54:31.901Z,3.58
2018-09-12T17:56:58.891Z,3.40
2018-09-12T17:59:25.842Z,3.45
2018-09-12T18:01:52.805Z,3.50
2018-09-12T18:04:19.788Z,3.50
2018-09-12T18:06:46.848Z,3.40
2018-09-12T18:09:13.830Z,3.50
2018-09-12T18:11:40.824Z,3.35
2018-09-12T18:14:07.799Z,3.77
2018-09-12T18:16:35.068Z,4.20
2018-09-12T18:19:02.038Z,4.50
2018-09-12T18:21:29.000Z,5.45
2018-09-12T18:23:55.953Z,5.42
2018-09-12T18:26:22.954Z,4.97
2018-09-12T18:28:49.919Z,6.80
2018-09-12T18:31:16.889Z,6.30
2018-09-12T18:33:43.893Z,5.60
2018-09-12T18:36:10.874Z,5.10
2018-09-12T18:38:37.823Z,4.37
2018-09-12T18:41:04.843Z,4.72
2018-09-12T18:43:32.202Z,5.15
2018-09-12T18:45:59.183Z,4.83
2018-09-12T18:48:26.190Z,4.70
2018-09-12T18:50:53.142Z,3.95
2018-09-12T18:53:20.109Z,4.47
2018-09-12T18:55:47.087Z,4.40
2018-09-12T18:58:14.062Z,4.78
2018-09-12T19:00:41.707Z,4.53
2018-09-12T19:03:08.712Z,5.10
2018-09-12T19:05:35.706Z,5.90
2018-09-12T19:08:02.660Z,4.62
2018-09-12T19:10:30.007Z,4.70
2018-09-12T19:12:57.117Z,5.33
2018-09-12T19:15:24.130Z,5.10
2018-09-12T19:17:51.102Z,5.23
2018-09-12T19:20:18.083Z,5.12
2018-09-12T19:22:45.039Z,5.00
2018-09-12T19:25:12.032Z,4.92
2018-09-12T19:27:39.023Z,4.80
2018-09-12T19:30:05.972Z,4.78
2018-09-12T19:32:32.943Z,4.67
2018-09-12T19:34:59.907Z,4.70
2018-09-12T19:37:26.878Z,4.70
2018-09-12T19:39:53.858Z,4.40
2018-09-12T19:42:20.957Z,4.50
2018-09-12T19:44:48.464Z,4.50
2018-09-12T19:47:15.461Z,4.40
2018-09-12T19:49:42.418Z,4.80
2018-09-12T19:52:09.362Z,4.83
2018-09-12T19:54:36.351Z,4.67
2018-09-12T19:57:04.226Z,5.25
2018-09-12T19:59:31.328Z,4.83
2018-09-12T20:01:59.083Z,4.58
2018-09-12T20:04:26.153Z,4.70
2018-09-12T20:06:53.220Z,4.45
2018-09-12T20:09:20.200Z,4.83
2018-09-12T20:11:49.106Z,4.80
2018-09-12T20:14:16.110Z,4.95
2018-09-12T20:16:43.075Z,4.90
2018-09-12T20:19:10.219Z,4.72
2018-09-12T20:21:37.207Z,4.65
2018-09-12T20:24:04.529Z,4.60
2018-09-12T20:26:31.409Z,4.60
2018-09-12T20:28:58.416Z,5.05
2018-09-12T20:31:25.412Z,4.22
2018-09-12T20:33:52.463Z,4.65
2018-09-12T20:36:19.450Z,4.85
2018-09-12T20:38:46.426Z,5.08
2018-09-12T20:41:13.377Z,4.83
2018-09-12T20:43:40.366Z,4.92
2018-09-12T20:46:07.750Z,4.70
2018-09-12T20:48:34.726Z,4.90
2018-09-12T20:51:01.700Z,4.55
2018-09-12T20:53:28.678Z,4.42
2018-09-12T20:55:55.679Z,4.72
2018-09-12T20:58:22.650Z,4.78
2018-09-12T21:00:49.646Z,5.00
2018-09-12T21:03:16.614Z,4.45
2018-09-12T21:05:43.578Z,4.20
2018-09-12T21:08:11.014Z,4.97
2018-09-12T21:10:37.976Z,4.60
2018-09-12T21:13:04.950Z,4.77
2018-09-12T21:15:31.970Z,4.80
2018-09-12T21:17:58.920Z,4.60
2018-09-12T21:20:25.883Z,5.30
2018-09-12T21:22:52.885Z,4.90
2018-09-12T21:25:19.830Z,5.03
2018-09-12T21:27:46.790Z,5.23
2018-09-12T21:30:13.914Z,5.33
2018-09-12T21:32:40.892Z,5.47
2018-09-12T21:35:07.934Z,5.60
2018-09-12T21:37:34.982Z,5.70
2018-09-12T21:40:01.983Z,5.85
2018-09-12T21:42:29.063Z,5.97
2018-09-12T21:44:56.063Z,5.62
2018-09-12T21:47:23.642Z,5.60
2018-09-12T21:49:50.604Z,5.97
2018-09-12T21:52:17.602Z,5.80
2018-09-12T21:54:44.577Z,5.80
2018-09-12T21:57:11.562Z,5.95
2018-09-12T21:59:38.594Z,5.90
2018-09-12T22:02:05.857Z,5.85
2018-09-12T22:04:32.900Z,6.42
2018-09-12T22:06:59.987Z,5.95
2018-09-12T22:09:27.661Z,6.20
2018-09-12T22:11:56.269Z,5.85
2018-09-12T22:14:23.338Z,5.75
2018-09-12T22:16:50.844Z,6.10
2018-09-12T22:19:17.861Z,5.67
2018-09-12T22:21:46.524Z,6.40
2018-09-12T22:24:13.622Z,6.30
2018-09-12T22:26:41.117Z,6.30
2018-09-12T22:29:09.110Z,6.60
2018-09-12T22:31:36.855Z,6.30
2018-09-12T22:34:03.907Z,6.10
2018-09-12T22:36:31.124Z,5.90
2018-09-12T22:38:58.683Z,5.50
2018-09-12T22:41:25.661Z,5.65
2018-09-12T22:43:52.662Z,5.47
2018-09-12T22:46:19.650Z,5.28
2018-09-12T22:48:47.126Z,5.15
2018-09-12T22:51:14.427Z,5.40
2018-09-12T22:53:41.365Z,11.73
2018-09-12T22:56:08.319Z,14.05
2018-09-12T22:58:35.302Z,12.63
2018-09-12T23:01:02.297Z,9.50
2018-09-12T23:03:29.257Z,5.80
2018-09-12T23:05:56.288Z,5.60
2018-09-12T23:08:23.245Z,5.45
2018-09-12T23:10:50.218Z,5.42
2018-09-12T23:13:17.233Z,5.45
2018-09-12T23:15:44.213Z,5.22
2018-09-12T23:18:11.314Z,5.40
2018-09-12T23:20:38.298Z,5.20
2018-09-12T23:23:05.755Z,5.20
2018-09-12T23:25:32.689Z,5.40
2018-09-12T23:27:59.681Z,5.22
2018-09-12T23:30:26.646Z,5.58
2018-09-12T23:32:53.593Z,5.58
2018-09-12T23:35:20.594Z,5.60
2018-09-12T23:37:47.694Z,5.83
2018-09-12T23:40:14.990Z,5.85
2018-09-12T23:42:42.018Z,5.65
2018-09-12T23:45:09.002Z,5.72
2018-09-12T23:47:35.992Z,5.50
2018-09-12T23:50:03.470Z,5.90
2018-09-12T23:52:30.425Z,5.73
2018-09-12T23:54:57.406Z,6.20
2018-09-12T23:57:24.415Z,6.30
2018-09-12T23:59:51.375Z,6.40
